Schedule Details


Flight Number: CTN471
Departure: Charles-de-gaulle (LFPG) at 18:30
Arrival: Franjo Tudman (LDZA) at 20:20
Route: LANVI UM164 EPL UN491 DEGES UN871 MADEB UN606 ELMEM UL607 GEDSO DCT VEKEN Y177 DEGUM DCT ARGOM

Weather Information
LFPG 200830Z VRB03KT 8000 BKN042 SCT260 08/06 Q1034 NOSIG
LDZA 200830Z 05014KT 360V080 CAVOK 08/M03 Q1032 NOSIG
Schedule Frequency

Route Map